createdAt,value
2023-05-23T00:03:59.623Z,60.47
2023-05-23T00:09:07.087Z,60.69
2023-05-23T00:14:15.079Z,61.03
2023-05-23T00:19:22.060Z,61.17
2023-05-23T00:24:29.203Z,61.52
2023-05-23T00:29:36.206Z,61.83
2023-05-23T00:34:43.514Z,62.18
2023-05-23T00:39:50.714Z,62.41
2023-05-23T00:44:58.003Z,62.57
2023-05-23T00:50:05.068Z,62.81
2023-05-23T00:55:13.196Z,62.96
2023-05-23T01:00:21.057Z,63.10
2023-05-23T01:05:28.270Z,63.35
2023-05-23T01:10:35.448Z,63.30
2023-05-23T01:15:50.109Z,63.50
2023-05-23T01:21:01.672Z,63.71
2023-05-23T01:26:15.059Z,63.94
2023-05-23T01:31:23.742Z,64.23
2023-05-23T01:36:35.454Z,64.22
2023-05-23T01:41:42.534Z,64.28
2023-05-23T01:46:50.022Z,64.56
2023-05-23T01:51:57.184Z,64.63
2023-05-23T01:57:06.059Z,64.70
2023-05-23T02:02:13.520Z,64.94
2023-05-23T02:07:23.622Z,65.04
2023-05-23T02:12:30.807Z,65.22
2023-05-23T02:17:41.589Z,65.48
2023-05-23T02:22:49.365Z,65.63
2023-05-23T02:27:56.331Z,65.86
2023-05-23T02:33:08.135Z,66.14
2023-05-23T02:38:15.604Z,66.16
2023-05-23T02:43:22.745Z,66.29
2023-05-23T02:48:29.872Z,66.65
2023-05-23T02:53:36.955Z,66.80
2023-05-23T02:58:43.965Z,66.97
2023-05-23T03:03:51.247Z,66.90
2023-05-23T03:08:58.337Z,67.33
2023-05-23T03:14:06.086Z,67.67
2023-05-23T03:19:13.255Z,68.01
2023-05-23T03:24:20.355Z,68.07
2023-05-23T03:29:30.181Z,68.08
2023-05-23T03:34:38.902Z,68.32
2023-05-23T03:39:46.545Z,68.57
2023-05-23T03:44:53.600Z,68.49
2023-05-23T03:50:02.173Z,68.50
2023-05-23T03:55:11.539Z,68.52
2023-05-23T04:00:20.178Z,68.65
2023-05-23T04:05:29.925Z,68.53
2023-05-23T04:10:37.307Z,68.60
2023-05-23T04:15:45.395Z,68.39
2023-05-23T04:20:53.379Z,68.22
2023-05-23T04:26:01.166Z,68.16
2023-05-23T04:31:13.944Z,67.98
2023-05-23T04:36:23.823Z,67.95
2023-05-23T04:41:34.353Z,67.98
2023-05-23T04:46:45.776Z,67.73
2023-05-23T04:52:07.588Z,67.52
2023-05-23T04:57:38.004Z,67.32
2023-05-23T05:02:46.579Z,66.96
2023-05-23T05:07:53.728Z,66.57
2023-05-23T05:13:00.755Z,66.15
2023-05-23T05:18:14.837Z,65.83
2023-05-23T05:23:24.074Z,66.11
2023-05-23T05:28:31.138Z,65.28
2023-05-23T05:33:39.516Z,65.01
2023-05-23T05:38:49.558Z,63.76
2023-05-23T05:43:58.451Z,63.49
2023-05-23T05:49:05.453Z,62.81
2023-05-23T05:54:12.561Z,62.72
2023-05-23T05:59:19.510Z,62.16
2023-05-23T06:04:26.973Z,61.90
2023-05-23T06:09:35.330Z,61.64
2023-05-23T06:14:42.909Z,61.69
2023-05-23T06:19:50.800Z,60.58
2023-05-23T06:24:59.375Z,59.36
2023-05-23T06:30:08.303Z,59.24
2023-05-23T06:35:15.453Z,59.02
2023-05-23T06:40:22.978Z,58.78
2023-05-23T06:46:01.580Z,58.39
2023-05-23T06:51:13.709Z,58.10
2023-05-23T06:56:22.780Z,57.79
2023-05-23T07:01:54.835Z,57.39
2023-05-23T07:07:09.387Z,56.48
2023-05-23T07:12:26.046Z,55.93
2023-05-23T07:17:36.418Z,55.58
2023-05-23T07:22:43.966Z,55.58
2023-05-23T07:28:09.675Z,55.07
2023-05-23T07:33:16.977Z,54.73
2023-05-23T07:39:02.459Z,54.53
2023-05-23T07:44:25.817Z,53.98
2023-05-23T07:49:45.957Z,53.34
2023-05-23T07:54:54.100Z,53.51
2023-05-23T08:00:02.180Z,52.59
2023-05-23T08:05:11.540Z,52.38
2023-05-23T08:10:19.794Z,52.00
2023-05-23T08:15:27.165Z,51.21
2023-05-23T08:20:43.570Z,50.80
2023-05-23T08:25:51.006Z,50.23
2023-05-23T08:31:00.947Z,49.93
2023-05-23T08:36:10.038Z,48.75
2023-05-23T08:41:20.379Z,48.04
2023-05-23T08:46:28.624Z,47.99
2023-05-23T08:51:39.438Z,46.91
2023-05-23T08:56:52.672Z,46.90
2023-05-23T09:02:01.605Z,46.69
2023-05-23T09:07:09.611Z,46.50
2023-05-23T09:12:17.636Z,46.65
2023-05-23T09:17:26.997Z,47.14
2023-05-23T09:22:34.260Z,47.09
2023-05-23T09:27:48.114Z,47.11
2023-05-23T09:33:05.590Z,47.21
2023-05-23T09:38:13.897Z,48.16
2023-05-23T09:43:23.586Z,48.81
2023-05-23T09:48:33.385Z,49.98
2023-05-23T09:53:40.323Z,50.47
2023-05-23T09:58:51.220Z,51.07
2023-05-23T10:04:00.322Z,52.40
2023-05-23T10:09:10.136Z,52.89
2023-05-23T10:14:17.356Z,52.97
2023-05-23T10:19:28.569Z,53.28
2023-05-23T10:24:36.956Z,54.18
2023-05-23T10:29:44.466Z,53.88
2023-05-23T10:34:59.040Z,53.97
2023-05-23T10:40:13.689Z,53.73
2023-05-23T10:45:22.331Z,53.67
2023-05-23T10:50:37.364Z,53.84
2023-05-23T10:55:50.018Z,54.20
2023-05-23T11:00:58.368Z,54.54
2023-05-23T11:06:06.407Z,54.56
2023-05-23T11:11:13.629Z,54.53
2023-05-23T11:16:41.708Z,54.77
2023-05-23T11:21:50.855Z,54.49
2023-05-23T11:27:01.353Z,54.76
2023-05-23T11:32:16.936Z,54.65
2023-05-23T11:37:27.194Z,54.12
2023-05-23T11:42:34.615Z,53.76
2023-05-23T11:47:44.797Z,53.46
2023-05-23T11:52:52.594Z,52.82
2023-05-23T11:58:00.141Z,52.60
2023-05-23T12:03:11.957Z,53.28
2023-05-23T12:08:18.938Z,52.79
2023-05-23T12:13:29.633Z,51.87
2023-05-23T12:18:38.849Z,51.73
2023-05-23T12:23:47.689Z,51.71
2023-05-23T12:28:55.148Z,51.55
2023-05-23T12:34:02.804Z,51.21
2023-05-23T12:39:10.504Z,51.10
2023-05-23T12:44:19.552Z,51.15
2023-05-23T12:49:26.724Z,51.81
2023-05-23T12:54:33.640Z,52.03
2023-05-23T12:59:40.577Z,51.88
2023-05-23T13:04:47.622Z,52.14
2023-05-23T13:09:56.152Z,51.45
2023-05-23T13:15:03.244Z,51.29
2023-05-23T13:20:12.197Z,51.32
2023-05-23T13:25:19.467Z,50.33
2023-05-23T13:30:27.347Z,48.82
2023-05-23T13:35:34.401Z,46.65
2023-05-23T13:40:41.652Z,44.73
2023-05-23T13:45:48.714Z,43.16
2023-05-23T13:50:55.875Z,42.54
2023-05-23T13:56:03.411Z,40.40
2023-05-23T14:01:10.572Z,40.88
2023-05-23T14:06:17.992Z,40.51
2023-05-23T14:11:24.956Z,41.56
2023-05-23T14:16:32.542Z,40.93
2023-05-23T14:21:39.787Z,40.97
2023-05-23T14:26:47.090Z,41.46
2023-05-23T14:31:54.407Z,41.48
2023-05-23T14:37:01.510Z,41.43
2023-05-23T14:42:08.895Z,41.58
2023-05-23T14:47:15.915Z,41.69
2023-05-23T14:52:22.906Z,41.96
2023-05-23T14:57:30.188Z,42.55
2023-05-23T15:02:37.511Z,43.17
2023-05-23T15:07:45.615Z,43.49
2023-05-23T15:12:52.676Z,43.59
2023-05-23T15:18:04.513Z,43.96
2023-05-23T15:23:11.496Z,44.29
2023-05-23T15:28:18.613Z,44.83
2023-05-23T15:33:25.822Z,45.06
2023-05-23T15:38:32.821Z,45.33
2023-05-23T15:43:39.830Z,45.51
2023-05-23T15:48:47.251Z,45.89
2023-05-23T15:59:04.536Z,46.06
2023-05-23T16:04:11.636Z,45.97
2023-05-23T16:09:18.736Z,45.82
2023-05-23T16:14:26.152Z,45.56
2023-05-23T16:19:33.803Z,45.86
2023-05-23T16:24:41.155Z,45.77
2023-05-23T16:29:48.138Z,46.08
2023-05-23T16:34:55.270Z,46.52
2023-05-23T16:40:02.197Z,46.83
2023-05-23T16:45:10.908Z,47.28
2023-05-23T16:50:18.180Z,46.19
2023-05-23T16:55:25.491Z,45.46
2023-05-23T17:00:32.482Z,45.54
2023-05-23T17:05:40.267Z,45.46
2023-05-23T17:10:47.889Z,46.13
2023-05-23T17:15:54.742Z,47.00
2023-05-23T17:21:01.906Z,48.15
2023-05-23T17:26:08.771Z,48.89
2023-05-23T17:31:15.796Z,50.39
2023-05-23T17:36:22.886Z,51.27
2023-05-23T17:41:29.814Z,52.83
2023-05-23T17:46:36.981Z,53.78
2023-05-23T17:51:44.038Z,55.80
2023-05-23T17:56:50.907Z,56.22
2023-05-23T18:01:57.956Z,58.03
2023-05-23T18:07:06.120Z,60.03
2023-05-23T18:12:13.141Z,60.97
2023-05-23T18:17:20.291Z,61.74
2023-05-23T18:22:27.534Z,62.71
2023-05-23T18:27:34.614Z,62.90
2023-05-23T18:32:41.707Z,64.22
2023-05-23T18:37:49.191Z,64.10
2023-05-23T18:42:56.258Z,66.99
2023-05-23T18:48:03.431Z,66.54
2023-05-23T18:53:10.768Z,67.39
2023-05-23T18:58:17.780Z,68.12
2023-05-23T19:03:24.725Z,67.82
2023-05-23T19:08:32.084Z,68.05
2023-05-23T19:13:39.041Z,68.51
2023-05-23T19:18:46.581Z,69.24
2023-05-23T19:23:53.943Z,69.09
2023-05-23T19:29:01.607Z,69.69
2023-05-23T19:34:08.899Z,70.12
2023-05-23T19:39:15.878Z,70.09
2023-05-23T19:44:25.718Z,70.71
2023-05-23T19:49:33.401Z,71.39
2023-05-23T19:54:41.088Z,73.08
2023-05-23T19:59:48.976Z,73.84
2023-05-23T20:04:56.728Z,73.80
2023-05-23T20:10:04.290Z,74.06
2023-05-23T20:15:12.712Z,74.21
2023-05-23T20:20:19.826Z,74.75
2023-05-23T20:25:28.677Z,74.61
2023-05-23T20:30:37.625Z,74.79
2023-05-23T20:35:48.403Z,74.17
2023-05-23T20:40:53.948Z,74.21
2023-05-23T20:46:02.262Z,74.74
2023-05-23T20:51:09.334Z,74.88
2023-05-23T20:56:16.782Z,75.48
2023-05-23T21:01:23.813Z,75.68
2023-05-23T21:06:30.709Z,75.66
2023-05-23T21:11:37.735Z,75.65
2023-05-23T21:16:44.839Z,76.02
2023-05-23T21:21:53.325Z,76.34
2023-05-23T21:27:01.885Z,76.67
2023-05-23T21:32:09.004Z,77.79
2023-05-23T21:37:16.193Z,78.51
2023-05-23T21:42:24.818Z,78.69
2023-05-23T21:47:31.679Z,78.43
2023-05-23T21:52:38.717Z,78.53
2023-05-23T21:57:47.828Z,79.22
2023-05-23T22:02:55.173Z,78.33
2023-05-23T22:08:02.110Z,78.85
2023-05-23T22:13:09.732Z,78.96
2023-05-23T22:18:16.784Z,78.37
2023-05-23T22:23:23.738Z,78.54
2023-05-23T22:28:31.223Z,78.29
2023-05-23T22:33:38.238Z,77.84
2023-05-23T22:38:45.242Z,78.00
2023-05-23T22:43:52.240Z,78.13
2023-05-23T22:49:00.419Z,77.93
2023-05-23T22:54:07.465Z,77.82
2023-05-23T22:59:14.305Z,78.24
2023-05-23T23:04:23.686Z,78.25
2023-05-23T23:09:30.774Z,78.14
2023-05-23T23:14:37.923Z,77.99
2023-05-23T23:19:45.025Z,78.01
2023-05-23T23:24:52.747Z,78.70
2023-05-23T23:29:59.890Z,78.43
2023-05-23T23:35:07.717Z,78.23
2023-05-23T23:40:15.587Z,78.49
2023-05-23T23:45:22.776Z,78.12
2023-05-23T23:50:31.469Z,78.04
2023-05-23T23:55:38.317Z,78.33
